Time;durP1;ratioP1;P1;durP2;ratioP2;P2;SDS_P1;SDS_P2;PMS_P1;PMS_P2;Temp;Humidity;BMP_temperature;BMP_pressure;BME280_temperature;BME280_humidity;BME280_pressure;Samples;Min_cycle;Max_cycle;Signal;HPM_P1;HPM_P2
2022/04/17 00:00:32;;;;;;;27.67;12.45;;;7.40;99.90;;;;;;4995870;28;20033;-76
2022/04/17 00:02:58;;;;;;;35.60;13.65;;;7.40;99.90;;;;;;5012757;28;20023;-76
2022/04/17 00:05:24;;;;;;;24.00;12.15;;;7.40;99.90;;;;;;5013177;28;20031;-76
2022/04/17 00:07:50;;;;;;;21.30;11.13;;;7.30;99.90;;;;;;5013840;28;20036;-76
2022/04/17 00:10:16;;;;;;;23.50;11.75;;;7.20;99.90;;;;;;5013185;28;20022;-76
2022/04/17 00:12:42;;;;;;;25.60;11.65;;;7.10;99.90;;;;;;5012457;28;20034;-77
2022/04/17 00:15:10;;;;;;;29.95;12.23;;;7.10;99.90;;;;;;4995387;28;20114;-77
2022/04/17 00:17:42;;;;;;;21.88;11.35;;;7.10;99.90;;;;;;5014152;28;20022;-77
2022/04/17 00:20:16;;;;;;;23.10;11.80;;;7.10;99.90;;;;;;5012786;28;20045;-76
2022/04/17 00:22:42;;;;;;;24.58;11.57;;;7.00;99.90;;;;;;5013793;28;20031;-76
2022/04/17 00:25:08;;;;;;;25.60;12.27;;;7.00;99.90;;;;;;4995383;28;20498;-76
2022/04/17 00:27:35;;;;;;;28.10;11.68;;;7.00;99.90;;;;;;5013788;28;20053;-78
2022/04/17 00:30:03;;;;;;;29.02;11.55;;;7.00;99.90;;;;;;4995498;28;20018;-75
2022/04/17 00:32:31;;;;;;;24.80;10.32;;;6.90;99.90;;;;;;5012791;28;20052;-76
2022/04/17 00:34:58;;;;;;;25.65;11.90;;;6.90;99.90;;;;;;5012435;28;20045;-77
2022/04/17 00:37:24;;;;;;;20.40;9.88;;;6.80;99.90;;;;;;5013141;28;20041;-78
2022/04/17 00:39:51;;;;;;;24.42;10.80;;;6.80;99.90;;;;;;4995273;28;20029;-78
2022/04/17 00:42:17;;;;;;;22.60;10.90;;;6.70;99.90;;;;;;5012540;28;20086;-77
2022/04/17 00:44:43;;;;;;;23.88;11.32;;;6.70;99.90;;;;;;5013294;28;20022;-77
2022/04/17 00:47:09;;;;;;;25.45;11.65;;;6.60;99.90;;;;;;4994717;28;20028;-77
2022/04/17 00:49:35;;;;;;;30.50;10.85;;;6.60;99.90;;;;;;4994578;28;20142;-77
2022/04/17 00:52:04;;;;;;;22.17;11.15;;;6.70;99.90;;;;;;5013418;28;20018;-77
2022/04/17 00:54:31;;;;;;;22.95;11.18;;;6.70;99.90;;;;;;4994906;28;20034;-77
2022/04/17 00:56:59;;;;;;;30.75;11.45;;;6.70;99.90;;;;;;4994997;28;20037;-78
2022/04/17 00:59:25;;;;;;;24.63;11.10;;;6.80;99.90;;;;;;4995718;28;20022;-78
2022/04/17 01:01:53;;;;;;;24.40;11.77;;;6.70;99.90;;;;;;4995668;28;20026;-77
2022/04/17 01:04:18;;;;;;;30.80;12.90;;;6.70;99.90;;;;;;5012258;28;20025;-77
2022/04/17 01:06:44;;;;;;;26.98;12.10;;;6.60;99.90;;;;;;5012490;28;20022;-77
2022/04/17 01:09:10;;;;;;;26.02;11.93;;;6.70;99.90;;;;;;4995883;28;20120;-77
2022/04/17 01:11:40;;;;;;;35.13;12.90;;;6.50;99.90;;;;;;4995146;28;20093;-77
2022/04/17 01:14:08;;;;;;;41.03;13.40;;;6.50;99.90;;;;;;4994938;28;20038;-78
2022/04/17 01:16:35;;;;;;;28.77;11.20;;;6.50;99.90;;;;;;4994475;28;20049;-78
2022/04/17 01:19:10;;;;;;;27.65;11.48;;;6.50;99.90;;;;;;4995917;28;20052;-76
2022/04/17 01:21:36;;;;;;;27.38;11.70;;;6.30;99.90;;;;;;5012715;28;20094;-77
2022/04/17 01:26:56;;;;;;;32.58;13.65;;;6.30;99.90;;;;;;5012457;28;20037;-78
2022/04/17 01:29:38;;;;;;;28.35;12.00;;;6.40;99.90;;;;;;4991626;28;20037;-78
2022/04/17 01:32:10;;;;;;;29.13;12.35;;;6.40;99.90;;;;;;5011916;28;20023;-78
2022/04/17 01:34:37;;;;;;;25.52;13.10;;;6.40;99.90;;;;;;5011992;28;20042;-78
2022/04/17 01:37:04;;;;;;;26.70;11.77;;;6.40;99.90;;;;;;5011899;28;20035;-79
2022/04/17 01:39:30;;;;;;;24.30;10.93;;;6.40;99.90;;;;;;5010502;28;20041;-77
2022/04/17 01:41:58;;;;;;;40.58;13.20;;;6.40;99.90;;;;;;4995425;28;20065;-80
2022/04/17 01:44:25;;;;;;;27.83;10.68;;;6.40;99.90;;;;;;5015481;28;20022;-81
2022/04/17 01:46:51;;;;;;;29.73;12.75;;;6.40;99.90;;;;;;5017333;28;20029;-80
2022/04/17 01:49:18;;;;;;;23.05;11.85;;;6.40;99.90;;;;;;5001125;28;20070;-81
2022/04/17 01:51:45;;;;;;;21.33;11.20;;;6.20;99.90;;;;;;4998410;28;20076;-81
2022/04/17 01:54:13;;;;;;;24.40;11.73;;;6.10;99.90;;;;;;5015489;28;20544;-81
2022/04/17 01:56:40;;;;;;;24.67;10.80;;;6.00;99.90;;;;;;5017968;28;20366;-77
2022/04/17 01:59:07;;;;;;;26.20;12.10;;;6.00;99.90;;;;;;5014778;28;20026;-80
2022/04/17 02:01:38;;;;;;;23.60;11.30;;;6.00;99.90;;;;;;4997950;28;20034;-79
2022/04/17 02:04:04;;;;;;;27.50;10.75;;;5.90;99.90;;;;;;5016563;28;20030;-79
2022/04/17 02:06:30;;;;;;;27.70;12.05;;;5.80;99.90;;;;;;4997804;28;20046;-79
2022/04/17 02:08:57;;;;;;;18.15;10.25;;;5.90;99.90;;;;;;5015717;28;20046;-79
2022/04/17 02:11:25;;;;;;;26.90;10.68;;;5.90;99.90;;;;;;4998255;28;20030;-78
2022/04/17 02:13:50;;;;;;;21.25;10.05;;;5.80;99.90;;;;;;4997204;28;20049;-81
2022/04/17 02:16:17;;;;;;;23.55;10.07;;;5.80;99.90;;;;;;5015195;28;20041;-79
2022/04/17 02:18:44;;;;;;;22.45;10.30;;;5.80;99.90;;;;;;5014310;28;20033;-78
2022/04/17 02:21:10;;;;;;;22.75;10.75;;;5.80;99.90;;;;;;4998471;28;20034;-79
2022/04/17 02:23:36;;;;;;;23.58;9.38;;;5.70;99.90;;;;;;4998011;28;20050;-80
2022/04/17 02:26:02;;;;;;;19.90;9.95;;;5.70;99.90;;;;;;5016536;28;20029;-83
2022/04/17 02:28:34;;;;;;;26.58;11.32;;;5.70;99.90;;;;;;5015045;28;20617;-81
2022/04/17 02:31:01;;;;;;;20.13;9.30;;;5.70;99.90;;;;;;4997984;28;20117;-82
2022/04/17 02:33:27;;;;;;;19.55;10.27;;;5.70;99.90;;;;;;4998432;28;20030;-79
2022/04/17 02:35:54;;;;;;;16.83;8.48;;;5.80;99.90;;;;;;5016169;28;20037;-80
2022/04/17 02:38:20;;;;;;;15.75;9.05;;;5.70;99.90;;;;;;5015978;28;20096;-81
2022/04/17 02:40:46;;;;;;;23.27;10.85;;;5.70;99.90;;;;;;4996831;28;20010;-81
2022/04/17 02:43:11;;;;;;;26.33;8.73;;;5.60;99.90;;;;;;5016521;28;20045;-81
2022/04/17 02:45:37;;;;;;;25.27;9.35;;;5.70;99.90;;;;;;4998044;28;20022;-80
2022/04/17 02:48:03;;;;;;;28.65;9.27;;;5.70;99.90;;;;;;4996920;28;20053;-81
2022/04/17 02:50:29;;;;;;;23.02;10.32;;;5.60;99.90;;;;;;5014527;28;20699;-83
2022/04/17 02:52:55;;;;;;;19.70;9.32;;;5.60;99.90;;;;;;4996882;28;20022;-80
2022/04/17 02:55:22;;;;;;;22.02;9.23;;;5.40;99.90;;;;;;4998303;28;20413;-79
2022/04/17 02:57:48;;;;;;;21.85;9.13;;;5.50;99.90;;;;;;5013954;28;20053;-78
2022/04/17 03:00:14;;;;;;;22.88;9.68;;;5.40;99.90;;;;;;4996859;28;20025;-80
2022/04/17 03:05:36;;;;;;;18.17;9.05;;;5.20;99.90;;;;;;5015697;28;20089;-82
2022/04/17 03:08:12;;;;;;;21.35;9.18;;;5.10;99.90;;;;;;4996945;28;20030;-78
2022/04/17 03:10:40;;;;;;;20.10;10.15;;;5.10;99.90;;;;;;4996746;28;20393;-80
2022/04/17 03:13:07;;;;;;;17.13;8.45;;;5.10;99.90;;;;;;5016132;28;20034;-80
2022/04/17 03:15:39;;;;;;;21.63;9.75;;;5.10;99.90;;;;;;4997134;28;20506;-79
2022/04/17 03:18:06;;;;;;;19.50;8.98;;;5.10;99.90;;;;;;5014107;28;20455;-80
2022/04/17 03:20:31;;;;;;;23.08;9.20;;;5.00;99.90;;;;;;4995441;28;20045;-80
2022/04/17 03:22:57;;;;;;;17.95;8.95;;;5.00;99.90;;;;;;4996101;28;20487;-80
2022/04/17 03:25:24;;;;;;;19.52;7.90;;;5.00;99.90;;;;;;5012990;28;20026;-78
2022/04/17 03:27:50;;;;;;;22.52;8.55;;;5.00;99.90;;;;;;5013697;28;20033;-81
2022/04/17 03:30:17;;;;;;;20.05;8.57;;;5.00;99.90;;;;;;4996129;28;20386;-78
2022/04/17 03:32:44;;;;;;;17.33;8.52;;;5.00;99.90;;;;;;5013338;28;20390;-80
2022/04/17 03:35:14;;;;;;;16.70;8.82;;;4.90;99.90;;;;;;5014879;28;20038;-81
2022/04/17 03:37:43;;;;;;;19.30;8.68;;;4.90;99.90;;;;;;4997382;28;20536;-79
2022/04/17 03:40:16;;;;;;;25.30;8.57;;;4.80;99.90;;;;;;5014632;28;20033;-82
2022/04/17 03:42:42;;;;;;;15.43;7.90;;;4.80;99.90;;;;;;5016510;28;20014;-80
2022/04/17 03:45:11;;;;;;;20.08;8.10;;;4.80;99.90;;;;;;4996785;28;20068;-78
2022/04/17 03:47:37;;;;;;;15.40;7.72;;;4.70;99.90;;;;;;4995617;28;20069;-79
2022/04/17 03:50:03;;;;;;;21.73;8.32;;;4.70;99.90;;;;;;4997397;28;20030;-79
2022/04/17 03:52:48;;;;;;;12.88;7.72;;;4.60;99.90;;;;;;5014610;28;20030;-78
2022/04/17 03:55:13;;;;;;;17.55;7.30;;;4.60;99.90;;;;;;4997925;28;20037;-79
2022/04/17 03:57:39;;;;;;;19.15;8.05;;;4.60;99.90;;;;;;4996164;28;20027;-81
2022/04/17 04:00:07;;;;;;;16.42;7.85;;;4.60;99.90;;;;;;4990269;28;20022;-81
2022/04/17 04:02:54;;;;;;;16.48;7.75;;;4.50;99.90;;;;;;5010545;28;20041;-81
2022/04/17 04:05:20;;;;;;;16.70;7.70;;;4.50;99.90;;;;;;5009245;28;20025;-81
2022/04/17 04:07:46;;;;;;;17.02;8.13;;;4.50;99.90;;;;;;5014067;28;20077;-80
2022/04/17 04:10:12;;;;;;;15.18;7.85;;;4.50;99.90;;;;;;5013265;28;20030;-79
2022/04/17 04:12:38;;;;;;;16.35;8.07;;;4.50;99.90;;;;;;5012999;28;20085;-80
2022/04/17 04:15:06;;;;;;;18.67;8.18;;;4.40;99.90;;;;;;5013522;28;20038;-79
2022/04/17 04:17:32;;;;;;;13.48;6.63;;;4.40;99.90;;;;;;4995099;28;20033;-82
2022/04/17 04:19:58;;;;;;;17.33;7.85;;;4.30;99.90;;;;;;4995613;28;20033;-82
2022/04/17 04:22:25;;;;;;;17.85;7.32;;;4.30;99.90;;;;;;5012481;28;20041;-80
2022/04/17 04:24:51;;;;;;;17.02;7.68;;;4.30;99.90;;;;;;4996066;28;20120;-82
2022/04/17 04:30:02;;;;;;;16.85;8.35;;;4.30;99.90;;;;;;5014236;28;20029;-83
2022/04/17 04:32:29;;;;;;;21.40;8.15;;;4.30;99.90;;;;;;5014577;28;20034;-79
2022/04/17 04:35:02;;;;;;;17.58;8.60;;;4.30;99.90;;;;;;5012257;28;20069;-79
2022/04/17 04:37:28;;;;;;;18.77;7.63;;;4.30;99.90;;;;;;5014401;28;20031;-78
2022/04/17 04:39:54;;;;;;;20.80;7.53;;;4.30;99.90;;;;;;4995962;28;20540;-79
2022/04/17 04:42:21;;;;;;;16.98;7.57;;;4.30;99.90;;;;;;4995721;28;20038;-78
2022/04/17 04:44:47;;;;;;;24.50;7.88;;;4.20;99.90;;;;;;4998424;28;20020;-79
2022/04/17 04:47:13;;;;;;;14.82;7.47;;;4.20;99.90;;;;;;4996465;28;20061;-79
2022/04/17 04:49:39;;;;;;;14.70;7.88;;;4.20;99.90;;;;;;4995485;28;20106;-79
2022/04/17 04:52:06;;;;;;;22.02;8.43;;;4.20;99.90;;;;;;4995772;28;20053;-82
2022/04/17 04:54:41;;;;;;;14.88;8.55;;;4.20;99.90;;;;;;4995457;28;20041;-82
2022/04/17 04:57:07;;;;;;;17.27;8.00;;;4.20;99.90;;;;;;5014149;28;20018;-80
2022/04/17 04:59:39;;;;;;;20.60;7.88;;;4.10;99.90;;;;;;4993426;28;20042;-81
2022/04/17 05:02:04;;;;;;;26.75;9.82;;;4.30;99.90;;;;;;5013308;28;20109;-80
2022/04/17 05:04:38;;;;;;;26.35;9.45;;;4.30;99.90;;;;;;5008230;28;20023;-80
2022/04/17 05:07:03;;;;;;;20.67;9.27;;;4.30;99.90;;;;;;4996375;28;20026;-81
2022/04/17 05:09:29;;;;;;;21.27;9.27;;;4.30;99.90;;;;;;5013155;28;20087;-82
2022/04/17 05:11:55;;;;;;;21.45;9.73;;;4.30;99.90;;;;;;4995687;28;20061;-81
2022/04/17 05:14:20;;;;;;;19.15;8.23;;;4.30;99.90;;;;;;4995054;28;20069;-80
2022/04/17 05:16:46;;;;;;;20.55;9.88;;;4.30;99.90;;;;;;5013018;28;20034;-82
2022/04/17 05:19:21;;;;;;;25.35;9.30;;;4.30;99.90;;;;;;4996615;28;20434;-82
2022/04/17 05:21:48;;;;;;;21.77;10.15;;;4.40;99.90;;;;;;5016604;28;20639;-83
2022/04/17 05:24:15;;;;;;;21.23;8.50;;;4.40;99.90;;;;;;4998670;28;20033;-78
2022/04/17 05:26:43;;;;;;;17.20;9.27;;;4.50;99.90;;;;;;4998316;28;20121;-77
2022/04/17 05:29:09;;;;;;;23.30;9.93;;;4.60;99.90;;;;;;5016765;28;20021;-77
2022/04/17 05:31:34;;;;;;;18.17;9.43;;;4.60;99.90;;;;;;4998738;28;20041;-77
2022/04/17 05:34:02;;;;;;;21.73;9.07;;;4.70;99.90;;;;;;4998965;28;20126;-76
2022/04/17 05:36:28;;;;;;;17.40;8.50;;;4.70;99.90;;;;;;5019262;28;20070;-78
2022/04/17 05:38:55;;;;;;;12.90;7.07;;;4.80;99.90;;;;;;4997939;28;20492;-76
2022/04/17 05:41:24;;;;;;;17.33;8.35;;;4.90;99.90;;;;;;5016292;28;20633;-77
2022/04/17 05:43:50;;;;;;;18.13;7.32;;;5.00;99.90;;;;;;5015612;28;20049;-77
2022/04/17 05:46:15;;;;;;;20.25;8.45;;;5.00;99.90;;;;;;5016533;28;20093;-77
2022/04/17 05:48:41;;;;;;;18.75;8.48;;;5.10;99.90;;;;;;4998818;28;20065;-77
2022/04/17 05:51:07;;;;;;;17.60;7.72;;;5.10;99.90;;;;;;4998868;28;20478;-77
2022/04/17 05:53:33;;;;;;;22.55;7.45;;;5.20;99.90;;;;;;4998384;28;20021;-76
2022/04/17 05:55:59;;;;;;;13.77;7.35;;;5.20;99.90;;;;;;5015526;28;20161;-77
2022/04/17 05:58:25;;;;;;;20.67;7.13;;;5.30;99.90;;;;;;5014957;28;20065;-77
2022/04/17 06:01:17;;;;;;;20.75;7.50;;;5.40;99.90;;;;;;4991931;28;20026;-77
2022/04/17 06:03:49;;;;;;;21.98;8.02;;;5.40;99.90;;;;;;4996454;28;20401;-76
2022/04/17 06:06:19;;;;;;;16.23;8.15;;;5.60;99.90;;;;;;4997317;28;20028;-77
2022/04/17 06:08:45;;;;;;;15.88;6.70;;;5.50;99.90;;;;;;5014619;28;20030;-77
2022/04/17 06:11:11;;;;;;;17.45;7.13;;;5.60;99.90;;;;;;5012810;28;20026;-76
2022/04/17 06:13:36;;;;;;;16.00;7.55;;;5.70;99.90;;;;;;4996833;28;20056;-76
2022/04/17 06:16:11;;;;;;;14.20;7.05;;;5.80;99.90;;;;;;5015846;28;20076;-77
2022/04/17 06:18:36;;;;;;;22.95;7.25;;;5.80;99.90;;;;;;4996546;28;20030;-76
2022/04/17 06:21:04;;;;;;;12.30;5.97;;;5.90;99.90;;;;;;5013810;28;20033;-77
2022/04/17 06:23:31;;;;;;;17.20;6.93;;;5.90;99.90;;;;;;5013765;28;20038;-77
2022/04/17 06:25:59;;;;;;;16.13;6.40;;;6.00;99.90;;;;;;4997687;28;20036;-78
2022/04/17 06:28:25;;;;;;;14.02;6.38;;;6.10;99.90;;;;;;4997685;28;20072;-76
2022/04/17 06:30:51;;;;;;;14.43;6.65;;;6.20;99.90;;;;;;4996668;28;20440;-77
2022/04/17 06:33:16;;;;;;;15.55;6.05;;;6.20;99.90;;;;;;5013602;28;20022;-77
2022/04/17 06:35:42;;;;;;;21.20;7.00;;;6.30;99.90;;;;;;5015562;28;20048;-75
2022/04/17 06:38:10;;;;;;;15.38;6.65;;;6.30;99.90;;;;;;5015853;28;20034;-75
2022/04/17 06:40:36;;;;;;;12.75;6.05;;;6.50;99.90;;;;;;4995839;28;20021;-76
2022/04/17 06:43:08;;;;;;;33.88;7.07;;;6.50;99.90;;;;;;5015091;28;20124;-77
2022/04/17 06:45:44;;;;;;;9.38;5.18;;;6.60;99.90;;;;;;5014555;28;20036;-79
2022/04/17 06:48:12;;;;;;;9.38;5.70;;;6.70;99.90;;;;;;5013260;28;20045;-77
2022/04/17 06:50:38;;;;;;;12.20;5.88;;;6.80;99.90;;;;;;4997281;28;20033;-79
2022/04/17 06:53:04;;;;;;;13.35;6.30;;;6.90;99.90;;;;;;4996138;28;20034;-77
2022/04/17 06:55:31;;;;;;;16.58;5.93;;;7.00;99.90;;;;;;5013511;28;20060;-78
2022/04/17 06:58:00;;;;;;;18.02;6.03;;;7.10;99.90;;;;;;4996981;28;20065;-78
2022/04/17 07:00:26;;;;;;;11.40;5.78;;;7.20;99.90;;;;;;4997002;28;20033;-78
2022/04/17 07:02:52;;;;;;;20.00;6.78;;;7.30;99.90;;;;;;5013060;28;20045;-77
2022/04/17 07:05:17;;;;;;;16.17;6.28;;;7.40;99.90;;;;;;4996351;28;20026;-77
2022/04/17 07:07:43;;;;;;;13.40;6.35;;;7.50;99.90;;;;;;4996822;28;20040;-77
2022/04/17 07:10:10;;;;;;;16.50;6.03;;;7.60;99.90;;;;;;5013797;28;20089;-77
2022/04/17 07:12:36;;;;;;;13.73;5.90;;;7.70;99.90;;;;;;5012607;28;20030;-76
2022/04/17 07:15:04;;;;;;;8.02;5.13;;;7.80;99.90;;;;;;4996346;28;20034;-78
2022/04/17 07:17:34;;;;;;;10.27;5.47;;;7.90;99.90;;;;;;4995127;28;20081;-78
2022/04/17 07:20:05;;;;;;;11.23;5.07;;;8.00;99.90;;;;;;5008376;28;20042;-78
2022/04/17 07:22:32;;;;;;;13.65;5.15;;;8.20;99.90;;;;;;4994141;28;20034;-78
2022/04/17 07:25:01;;;;;;;13.65;4.60;;;8.50;99.90;;;;;;5014617;28;20068;-80
2022/04/17 07:27:27;;;;;;;7.82;3.95;;;8.50;99.90;;;;;;4997941;28;20038;-78
2022/04/17 07:29:59;;;;;;;6.43;3.70;;;8.60;99.90;;;;;;5014239;28;20045;-78
2022/04/17 07:32:25;;;;;;;9.85;3.92;;;8.80;99.90;;;;;;5014253;28;20022;-78
2022/04/17 07:34:51;;;;;;;7.10;4.15;;;8.90;99.90;;;;;;5014226;28;20046;-75
2022/04/17 07:37:27;;;;;;;7.25;3.22;;;9.00;99.90;;;;;;4996827;28;20030;-77
2022/04/17 07:39:54;;;;;;;8.05;4.82;;;9.10;99.90;;;;;;4996410;28;20038;-75
2022/04/17 07:42:21;;;;;;;8.15;4.18;;;9.20;99.90;;;;;;4995388;28;20042;-76
2022/04/17 07:44:48;;;;;;;9.93;4.72;;;9.30;99.90;;;;;;4995673;28;20117;-76
2022/04/17 07:47:14;;;;;;;10.43;4.55;;;9.40;99.90;;;;;;4991760;28;20464;-78
2022/04/17 07:49:40;;;;;;;10.98;4.70;;;9.50;99.90;;;;;;5012431;28;20121;-76
2022/04/17 07:52:07;;;;;;;11.27;4.78;;;9.50;99.90;;;;;;5013910;28;20046;-74
2022/04/17 07:54:32;;;;;;;6.82;3.88;;;9.60;99.90;;;;;;5011532;28;20494;-76
2022/04/17 07:57:00;;;;;;;8.93;4.30;;;9.70;99.90;;;;;;5012846;28;20065;-78
2022/04/17 07:59:25;;;;;;;9.07;4.28;;;9.90;99.90;;;;;;4992783;28;20118;-77
2022/04/17 08:02:01;;;;;;;9.00;4.70;;;10.00;99.90;;;;;;4995009;28;20058;-77
2022/04/17 08:04:30;;;;;;;7.35;3.88;;;10.20;99.90;;;;;;4995416;28;20030;-75
2022/04/17 08:06:56;;;;;;;6.35;2.90;;;10.30;99.90;;;;;;4995895;28;20082;-77
2022/04/17 08:09:29;;;;;;;8.60;3.05;;;10.40;99.90;;;;;;4994388;28;20914;-77
2022/04/17 08:11:55;;;;;;;9.57;3.53;;;10.50;99.90;;;;;;4995276;28;20052;-74
2022/04/17 08:14:21;;;;;;;8.07;3.47;;;10.60;99.90;;;;;;5013306;28;20089;-77
2022/04/17 08:16:47;;;;;;;6.97;3.78;;;10.70;99.90;;;;;;5012771;28;20068;-73
2022/04/17 08:19:13;;;;;;;4.80;2.88;;;10.70;99.90;;;;;;5011888;28;20060;-75
2022/04/17 08:21:40;;;;;;;9.93;2.85;;;10.80;99.90;;;;;;4993650;28;20030;-75
2022/04/17 08:24:06;;;;;;;7.53;3.13;;;11.00;99.90;;;;;;5013518;28;20049;-74
2022/04/17 08:26:33;;;;;;;5.93;2.70;;;11.20;99.90;;;;;;4996406;28;20061;-75
2022/04/17 08:28:59;;;;;;;6.72;3.10;;;11.40;99.90;;;;;;4995409;28;20064;-77
2022/04/17 08:31:25;;;;;;;4.13;2.22;;;11.60;99.90;;;;;;4994944;28;20097;-75
2022/04/17 08:33:52;;;;;;;6.93;2.22;;;11.70;99.90;;;;;;4996114;28;20062;-75
2022/04/17 08:36:18;;;;;;;3.88;2.45;;;11.90;99.90;;;;;;4996958;28;20018;-76
2022/04/17 08:38:44;;;;;;;4.78;2.63;;;12.10;99.90;;;;;;4995215;28;20026;-76
2022/04/17 08:41:11;;;;;;;5.57;3.08;;;12.30;99.90;;;;;;4993051;28;20031;-78
2022/04/17 08:43:38;;;;;;;4.88;2.88;;;12.40;99.90;;;;;;5011372;28;20046;-79
2022/04/17 08:46:05;;;;;;;4.82;2.33;;;12.60;99.90;;;;;;5011728;28;20612;-78
2022/04/17 08:48:35;;;;;;;6.55;3.05;;;12.90;99.90;;;;;;5013363;28;20474;-76
2022/04/17 08:51:03;;;;;;;4.95;2.38;;;13.20;99.90;;;;;;4996129;28;20491;-78
2022/04/17 08:53:33;;;;;;;6.07;2.35;;;13.60;99.90;;;;;;5012611;28;20397;-75
2022/04/17 08:55:58;;;;;;;4.30;2.50;;;13.70;99.90;;;;;;5014118;28;20029;-78
2022/04/17 08:58:24;;;;;;;7.03;2.20;;;13.80;99.90;;;;;;5017548;28;20042;-76
2022/04/17 09:00:50;;;;;;;2.47;1.40;;;13.90;99.90;;;;;;5016665;28;20018;-70
2022/04/17 09:03:16;;;;;;;5.90;2.25;;;14.00;99.90;;;;;;5013856;28;20037;-77
2022/04/17 09:05:42;;;;;;;3.45;2.10;;;14.00;99.90;;;;;;5014418;28;20029;-77
2022/04/17 09:08:18;;;;;;;2.42;1.92;;;13.90;99.90;;;;;;4997763;28;20041;-76
2022/04/17 09:10:58;;;;;;;3.35;1.88;;;14.00;99.90;;;;;;5011278;28;20018;-76
2022/04/17 09:13:34;;;;;;;5.70;1.88;;;14.10;99.90;;;;;;4999124;28;20034;-78
2022/04/17 09:16:02;;;;;;;7.05;2.17;;;14.20;99.90;;;;;;5019170;28;20497;-79
2022/04/17 09:18:33;;;;;;;5.63;1.77;;;14.40;99.90;;;;;;4997075;28;20026;-78
2022/04/17 09:21:01;;;;;;;3.65;1.60;;;14.60;99.90;;;;;;5010985;28;20057;-77
2022/04/17 09:23:37;;;;;;;2.67;1.58;;;14.70;99.90;;;;;;5011831;28;20030;-76
2022/04/17 09:26:16;;;;;;;3.53;1.55;;;14.90;99.90;;;;;;5007699;28;20733;-78
2022/04/17 09:28:44;;;;;;;2.55;1.23;;;14.90;99.90;;;;;;4996525;28;20033;-78
2022/04/17 09:31:11;;;;;;;4.45;1.65;;;15.10;99.90;;;;;;4995011;28;20469;-79
2022/04/17 09:33:41;;;;;;;2.40;1.63;;;15.10;99.90;;;;;;5014994;28;20470;-74
2022/04/17 09:36:12;;;;;;;3.95;1.88;;;15.20;99.90;;;;;;4998467;28;20033;-79
2022/04/17 09:38:38;;;;;;;2.83;1.38;;;15.30;99.90;;;;;;5016905;28;20026;-78
2022/04/17 09:41:13;;;;;;;2.47;1.30;;;15.50;99.90;;;;;;4998948;28;20026;-78
2022/04/17 09:43:39;;;;;;;1.92;1.40;;;15.50;99.90;;;;;;5014309;28;20028;-78
2022/04/17 09:46:10;;;;;;;2.60;1.50;;;15.50;99.90;;;;;;5013278;28;20085;-78
2022/04/17 09:48:40;;;;;;;4.63;1.80;;;15.40;99.90;;;;;;4995649;28;20057;-77
2022/04/17 09:51:22;;;;;;;3.53;1.40;;;15.60;99.90;;;;;;5015984;28;20033;-75
2022/04/17 09:53:59;;;;;;;5.82;2.28;;;15.30;99.30;;;;;;4997135;28;20045;-76
2022/04/17 09:56:38;;;;;;;5.20;1.67;;;15.10;99.80;;;;;;4998480;28;20022;-77
2022/04/17 09:59:18;;;;;;;2.72;1.20;;;15.00;99.70;;;;;;4995453;28;20045;-77
2022/04/17 10:01:57;;;;;;;1.40;1.00;;;14.90;99.90;;;;;;4990493;28;20033;-77
2022/04/17 10:04:27;;;;;;;3.17;1.45;;;15.10;99.90;;;;;;4995954;28;20409;-75
2022/04/17 10:06:59;;;;;;;4.80;1.42;;;15.40;99.90;;;;;;4992582;28;20037;-77
2022/04/17 10:09:31;;;;;;;2.40;1.10;;;15.60;99.90;;;;;;5009206;28;20031;-78
2022/04/17 10:11:59;;;;;;;3.35;2.08;;;15.70;99.10;;;;;;5015482;28;20041;-77
2022/04/17 10:14:31;;;;;;;3.35;1.20;;;15.80;99.60;;;;;;4998491;28;20046;-78
2022/04/17 10:16:58;;;;;;;2.58;1.42;;;16.00;98.70;;;;;;4997500;28;20057;-76
2022/04/17 10:19:28;;;;;;;2.58;1.33;;;16.10;99.90;;;;;;4998119;28;20125;-76
2022/04/17 10:22:01;;;;;;;2.38;1.35;;;16.30;99.00;;;;;;4996959;28;20060;-78
2022/04/17 10:24:31;;;;;;;2.55;0.90;;;16.50;98.40;;;;;;5013798;28;20025;-80
2022/04/17 10:27:02;;;;;;;1.73;1.17;;;16.80;97.70;;;;;;4997108;28;20038;-77
2022/04/17 10:29:52;;;;;;;1.98;1.15;;;17.10;98.50;;;;;;4994136;28;20022;-76
2022/04/17 10:33:08;;;;;;;4.63;1.13;;;17.40;95.50;;;;;;5014665;28;20470;-75
2022/04/17 10:35:48;;;;;;;3.88;1.15;;;17.50;94.60;;;;;;5015014;28;20474;-77
2022/04/17 10:38:23;;;;;;;1.48;1.08;;;17.50;94.80;;;;;;5012772;28;20982;-73
2022/04/17 10:40:59;;;;;;;1.70;1.10;;;17.60;94.10;;;;;;4995579;28;20032;-74
2022/04/17 10:43:50;;;;;;;2.63;1.15;;;17.60;91.60;;;;;;4996708;28;20042;-75
2022/04/17 10:46:19;;;;;;;8.27;1.00;;;17.30;90.60;;;;;;5013657;28;20030;-75
2022/04/17 10:48:49;;;;;;;2.00;0.90;;;17.20;91.90;;;;;;4993554;28;20149;-74
2022/04/17 10:51:30;;;;;;;1.02;0.60;;;17.30;90.20;;;;;;5015305;28;20026;-77
2022/04/17 10:54:06;;;;;;;0.98;0.80;;;17.40;89.10;;;;;;5013147;28;20117;-77
2022/04/17 10:56:37;;;;;;;0.77;0.60;;;17.60;90.00;;;;;;4996380;28;20026;-79
2022/04/17 10:59:07;;;;;;;1.90;0.95;;;17.70;89.40;;;;;;4997887;28;20030;-78
2022/04/17 11:01:45;;;;;;;2.47;0.90;;;18.00;90.40;;;;;;4997100;28;20036;-78
2022/04/17 11:04:41;;;;;;;1.67;1.00;;;18.00;86.90;;;;;;4996728;28;20061;-78
2022/04/17 11:07:07;;;;;;;2.58;1.20;;;18.20;88.30;;;;;;5012530;28;20037;-75
2022/04/17 11:09:34;;;;;;;3.22;1.10;;;18.40;90.10;;;;;;4995723;28;20034;-75
2022/04/17 11:12:18;;;;;;;5.57;0.73;;;18.70;88.00;;;;;;5015402;28;20056;-77
2022/04/17 11:14:55;;;;;;;2.83;1.10;;;18.70;81.50;;;;;;4997015;28;20035;-79
2022/04/17 11:17:30;;;;;;;6.70;1.00;;;18.80;83.80;;;;;;4995004;28;20046;-77
2022/04/17 11:19:59;;;;;;;1.60;1.20;;;18.80;83.40;;;;;;5013786;28;20026;-78
2022/04/17 11:22:34;;;;;;;3.53;0.80;;;18.80;82.10;;;;;;4995158;28;20034;-76
2022/04/17 11:25:03;;;;;;;2.38;1.00;;;18.90;78.00;;;;;;5013459;28;20040;-77
2022/04/17 11:27:38;;;;;;;1.95;0.90;;;18.80;79.40;;;;;;4996108;28;20034;-75
2022/04/17 11:30:05;;;;;;;1.55;0.82;;;18.70;79.60;;;;;;5013649;28;20030;-78
2022/04/17 11:32:31;;;;;;;1.30;0.63;;;18.80;80.80;;;;;;5012689;28;20034;-79
2022/04/17 11:35:12;;;;;;;1.35;0.95;;;19.00;81.40;;;;;;4995577;28;20036;-76
2022/04/17 11:37:38;;;;;;;1.40;0.77;;;19.20;82.20;;;;;;5012024;28;20021;-77
2022/04/17 11:40:14;;;;;;;1.98;1.10;;;19.40;80.60;;;;;;5012692;28;20033;-78
2022/04/17 11:42:44;;;;;;;2.85;0.98;;;19.60;80.30;;;;;;5012023;28;20048;-73
2022/04/17 11:45:16;;;;;;;1.55;0.98;;;19.70;78.50;;;;;;5012218;28;20029;-76
2022/04/17 11:47:44;;;;;;;1.95;1.00;;;19.80;81.00;;;;;;5012866;28;20051;-78
2022/04/17 11:50:12;;;;;;;1.67;0.95;;;19.90;80.80;;;;;;4995085;28;20184;-79
2022/04/17 11:52:38;;;;;;;1.30;0.88;;;20.10;77.90;;;;;;5012830;28;20026;-78
2022/04/17 11:55:07;;;;;;;1.33;0.70;;;20.20;78.70;;;;;;4995174;28;20049;-79
2022/04/17 11:57:34;;;;;;;1.60;1.00;;;20.20;74.40;;;;;;5013116;28;20054;-79
2022/04/17 12:00:00;;;;;;;2.25;0.90;;;20.10;74.00;;;;;;4994816;28;20077;-78
2022/04/17 12:02:28;;;;;;;1.38;0.90;;;20.10;74.00;;;;;;4995695;28;20034;-77
2022/04/17 12:04:55;;;;;;;1.02;0.60;;;20.10;74.60;;;;;;5013328;28;20036;-76
2022/04/17 12:07:27;;;;;;;1.08;0.65;;;20.10;73.20;;;;;;5012119;28;20468;-80
2022/04/17 12:10:14;;;;;;;1.10;0.68;;;20.40;69.60;;;;;;4995340;28;20034;-78
2022/04/17 12:12:45;;;;;;;0.95;0.65;;;20.50;67.10;;;;;;4993764;28;20026;-77
2022/04/17 12:15:12;;;;;;;1.65;0.88;;;20.50;71.00;;;;;;5012549;28;20049;-76
2022/04/17 12:17:39;;;;;;;1.00;0.50;;;20.70;69.10;;;;;;5011291;28;20029;-75
2022/04/17 12:20:13;;;;;;;0.52;0.40;;;20.80;69.10;;;;;;5008955;28;20030;-78
2022/04/17 12:22:41;;;;;;;0.98;0.57;;;21.00;70.60;;;;;;5013035;28;20106;-78
2022/04/17 12:25:26;;;;;;;2.08;0.80;;;21.30;65.80;;;;;;4993248;28;20025;-78
2022/04/17 12:27:56;;;;;;;1.38;0.85;;;21.20;63.30;;;;;;5011948;28;20040;-76
2022/04/17 12:30:24;;;;;;;2.17;0.90;;;21.10;65.10;;;;;;4994010;28;20094;-77
2022/04/17 12:32:50;;;;;;;2.28;0.88;;;21.10;66.10;;;;;;5011362;28;20110;-78
2022/04/17 12:35:25;;;;;;;0.93;0.60;;;21.00;66.00;;;;;;5012701;28;20077;-75
2022/04/17 12:38:04;;;;;;;1.33;0.60;;;21.00;62.20;;;;;;5014425;28;20037;-77
2022/04/17 12:40:31;;;;;;;0.93;0.57;;;20.90;63.30;;;;;;5012314;28;20026;-76
2022/04/17 12:43:17;;;;;;;1.48;0.60;;;20.90;64.00;;;;;;5012563;28;20031;-75
2022/04/17 12:46:00;;;;;;;1.02;0.52;;;21.20;60.30;;;;;;5013344;28;20033;-73
2022/04/17 12:48:34;;;;;;;3.43;0.80;;;21.30;59.50;;;;;;5011659;28;20042;-78
2022/04/17 12:51:05;;;;;;;5.15;0.70;;;21.40;61.30;;;;;;4995625;28;20034;-79
2022/04/17 12:53:35;;;;;;;1.35;0.63;;;21.70;64.10;;;;;;4994973;28;20053;-78
2022/04/17 12:56:02;;;;;;;1.08;0.77;;;22.10;65.00;;;;;;5012676;28;20029;-79
2022/04/17 12:58:28;;;;;;;2.42;1.02;;;22.40;65.80;;;;;;4995306;28;20466;-77
2022/04/17 13:00:58;;;;;;;0.68;0.60;;;22.60;65.50;;;;;;4994706;28;20344;-78
2022/04/17 13:03:34;;;;;;;2.05;0.82;;;22.60;61.50;;;;;;5012290;28;20475;-77